Latest Weather Observations for Parawa West

IDS60801

Issued at 7:01 pm CST Wednesday 23 August 2017 (issued every 30 minutes, with the page automatically refreshed every 10 minutes)

About weather observations | Map of weather stations | Latest weather observations for SA | Other Formats
Station Details ID: 023875 Name: SECOND VALLEY FOREST AWS Lat: -35.57 Lon: 138.29 Height: 341.0 m
Data from the previous 72 hours. | See also: Recent months at Parawa West
Date/Time
CST
Temp
°C
App
Temp
°C
Dew
Point
°C
Rel
Hum
%
Delta-T
°C
Wind Press
QNH
hPa
Press
MSL
hPa
Rain since
9am
mm
Dir  Spd
km/h
Gust
km/h
Spd
kts
Gust
kts
23/07:00pm 8.0 5.9 5.6 85 1.1 WSW 6 9 3 5 1023.6 1023.9 2.6
23/06:30pm 8.3 6.2 5.9 85 1.1 WSW 6 9 3 5 1023.2 1023.6 2.6
23/06:00pm 8.7 6.6 5.8 82 1.3 WSW 6 11 3 6 1022.9 1023.2 2.6
23/05:30pm 9.7 6.3 5.9 77 1.8 SW 13 20 7 11 1022.7 1023.0 2.6
23/05:00pm 10.2 7.3 6.4 77 1.8 SW 11 20 6 11 1022.3 1022.6 2.6
23/04:30pm 10.5 7.7 6.8 78 1.8 SW 11 22 6 12 1022.0 1022.3 2.6
23/04:00pm 11.4 7.8 6.7 73 2.3 SW 15 24 8 13 1021.7 1022.0 2.6
23/03:30pm 11.3 6.1 5.4 67 2.8 SW 22 32 12 17 1021.4 1021.7 2.6
23/03:00pm 11.4 6.7 5.9 69 2.6 SW 20 32 11 17 1021.2 1021.5 2.6
23/02:30pm 11.7 7.8 7.2 74 2.2 SW 17 24 9 13 1021.1 1021.4 2.6
23/02:00pm 11.2 6.8 6.5 73 2.3 SW 19 33 10 18 1020.9 1021.2 2.6
23/01:30pm 11.8 7.2 6.5 70 2.5 SW 20 32 11 17 1020.8 1021.0 2.6
23/01:00pm 12.2 8.1 8.7 79 1.8 SSW 20 30 11 16 1020.8 1021.0 2.6
23/12:30pm 12.5 10.1 10.2 86 1.2 SW 13 24 7 13 1020.9 1021.2 2.6
23/12:00pm 11.6 8.9 10.2 91 0.7 WSW 15 24 8 13 1021.0 1021.3 2.6
23/11:30am 11.4 8.5 10.9 97 0.3 W 17 24 9 13 1021.2 1021.5 2.6
23/11:00am 10.7 8.1 10.7 100 0.0 W 15 24 8 13 1021.0 1021.3 2.4
23/10:30am 10.3 8.0 10.3 100 0.0 W 13 20 7 11 1020.9 1021.2 1.8
23/10:00am 9.8 6.9 9.8 100 0.0 WNW 15 22 8 12 1020.8 1021.0 1.2
23/09:30am 9.8 6.6 9.8 100 0.0 WNW 17 26 9 14 1020.6 1020.8 0.6
23/09:00am 10.3 6.8 10.3 100 0.0 NW 19 30 10 16 1020.1 1020.4 7.4
23/08:30am 10.4 7.0 10.4 100 0.0 NW 19 33 10 18 1020.0 1020.3 6.6
23/08:00am 10.5 6.9 10.5 100 0.0 NW 20 39 11 21 1019.4 1019.7 5.6
23/07:30am 10.4 7.0 10.4 100 0.0 NW 19 30 10 16 1019.4 1019.7 4.4
23/07:00am 9.8 6.6 9.8 100 0.0 NW 17 26 9 14 1019.4 1019.7 2.8
23/06:30am 10.1 6.4 10.1 100 0.0 NW 20 35 11 19 1019.2 1019.5 2.0
23/06:00am 10.1 6.9 10.1 100 0.0 NW 17 24 9 13 1019.4 1019.7 1.8
23/05:30am 10.0 7.6 10.0 100 0.0 NW 13 20 7 11 1019.4 1019.7 1.8
23/05:00am 10.0 7.2 10.0 100 0.0 NW 15 22 8 12 1019.3 1019.6 1.8
23/04:30am 10.1 7.3 10.1 100 0.0 WNW 15 22 8 12 1019.3 1019.6 1.8
23/04:00am 10.0 7.2 10.0 100 0.0 NW 15 24 8 13 1019.1 1019.4 1.8
23/03:30am 10.1 7.3 10.1 100 0.0 NW 15 20 8 11 1019.4 1019.7 1.8
23/03:00am 9.9 7.1 9.9 100 0.0 WNW 15 26 8 14 1019.7 1020.0 1.8
23/02:30am 9.8 6.9 9.7 99 0.1 NW 15 24 8 13 1019.8 1020.1 1.8
23/02:00am 9.7 7.2 9.7 100 0.0 NW 13 22 7 12 1019.9 1020.2 1.8
23/01:30am 9.8 7.7 9.8 100 0.0 NW 11 20 6 11 1019.9 1020.2 1.8
23/01:00am 9.6 7.5 9.6 100 0.0 NW 11 19 6 10 1019.9 1020.2 1.8
23/12:30am 9.4 8.0 9.4 100 0.0 NW 7 11 4 6 1020.1 1020.4 1.8
23/12:00am 9.5 7.3 9.5 100 0.0 NNW 11 17 6 9 1020.2 1020.5 1.8
 
Date/Time
CST
Temp
°C
App
Temp
°C
Dew
Point
°C
Rel
Hum
%
Delta-T
°C
Wind Press
QNH
hPa
Press
MSL
hPa
Rain since
9am
mm
Dir  Spd
km/h
Gust
km/h
Spd
kts
Gust
kts
22/11:30pm 9.3 7.8 9.2 99 0.1 NW 7 13 4 7 1020.5 1020.7 1.8
22/11:00pm 9.4 6.4 9.3 99 0.1 WNW 15 26 8 14 1020.7 1020.9 1.8
22/10:30pm 9.2 5.3 8.7 97 0.2 NW 19 35 10 19 1020.9 1021.2 0.0
22/10:00pm 10.1 8.4 9.8 98 0.2 NNW 9 15 5 8 1021.0 1021.3 0.0
22/09:30pm 9.7 8.3 9.4 98 0.2 NNW 7 13 4 7 1021.0 1021.3 0.0
22/09:00pm 10.1 8.8 9.8 98 0.2 NNW 7 11 4 6 1021.0 1021.3 0.0
22/08:30pm 10.2 8.1 9.7 97 0.3 NNW 11 15 6 8 1021.0 1021.3 0.0
22/08:00pm 10.3 8.9 9.7 96 0.3 NW 7 13 4 7 1020.8 1021.0 0.0
22/07:30pm 10.0 8.6 9.4 96 0.3 NNW 7 11 4 6 1020.6 1020.8 0.0
22/07:00pm 10.0 8.2 9.5 97 0.3 NW 9 15 5 8 1020.5 1020.7 0.0
22/06:30pm 10.1 8.9 9.6 97 0.3 NW 6 9 3 5 1020.4 1020.6 0.0
22/06:00pm 10.0 8.6 9.4 96 0.3 NW 7 13 4 7 1020.1 1020.4 0.0
22/05:30pm 9.9 7.2 9.0 94 0.5 NNW 13 19 7 10 1019.9 1020.2 0.0
22/05:00pm 10.7 8.0 8.8 88 1.0 NW 13 22 7 12 1019.9 1020.2 0.0
22/04:30pm 11.3 7.2 8.0 80 1.6 NW 19 26 10 14 1019.7 1020.0 0.0
22/04:00pm 10.6 7.0 8.4 86 1.1 NW 17 26 9 14 1019.6 1019.9 0.0
22/03:30pm 11.7 8.0 9.4 86 1.2 NW 19 28 10 15 1019.4 1019.7 0.0
22/03:00pm 11.7 8.4 9.4 86 1.2 NW 17 24 9 13 1019.4 1019.7 0.0
22/02:30pm 12.8 9.4 9.3 79 1.8 NNW 17 24 9 13 1019.3 1019.6 0.0
22/02:00pm 12.2 8.7 8.9 80 1.7 NW 17 30 9 16 1019.4 1019.7 0.0
22/01:30pm 12.6 8.8 8.9 78 1.9 NW 19 28 10 15 1019.5 1019.8 0.0
22/01:00pm 12.3 8.5 9.0 80 1.7 NW 19 28 10 15 1019.9 1020.2 0.0
22/12:30pm 12.3 8.5 9.1 81 1.6 NW 19 26 10 14 1020.1 1020.4 0.0
22/12:00pm 12.3 8.4 8.8 79 1.8 NW 19 30 10 16 1020.5 1020.7 0.0
22/11:30am 12.2 8.8 9.2 82 1.5 NW 17 26 9 14 1020.7 1020.9 0.0
22/11:00am 11.8 8.9 9.5 86 1.2 NW 15 24 8 13 1020.9 1021.2 0.0
22/10:30am 11.5 9.0 9.6 88 1.0 NW 13 20 7 11 1020.9 1021.2 0.0
22/10:00am 10.8 7.7 8.9 88 1.0 NW 15 22 8 12 1020.8 1021.0 0.0
22/09:30am 9.9 6.7 8.5 91 0.7 NW 15 24 8 13 1020.8 1021.0 0.0
22/09:00am 9.9 7.3 7.8 87 1.0 NW 11 20 6 11 1020.8 1021.0 16.2
22/08:30am 9.1 5.8 7.9 92 0.6 WNW 15 24 8 13 1020.8 1021.0 16.2
22/08:00am 9.1 7.2 7.7 91 0.7 WNW 7 11 4 6 1020.7 1020.9 16.2
22/07:30am 8.7 5.5 7.0 89 0.8 WNW 13 20 7 11 1020.4 1020.6 16.2
22/07:00am 8.6 6.7 6.6 87 0.9 NW 6 7 3 4 1019.9 1020.2 16.2
22/06:30am 8.6 6.7 6.6 87 0.9 NW 6 9 3 5 1019.5 1019.8 16.2
22/06:00am 8.3 6.4 6.9 91 0.7 WNW 6 9 3 5 1019.2 1019.5 16.2
22/05:30am 8.4 6.4 7.2 92 0.6 W 7 11 4 6 1019.0 1019.3 16.2
22/05:00am 8.4 6.1 7.6 95 0.4 W 9 13 5 7 1018.8 1019.1 16.0
22/04:30am 8.1 5.9 7.7 97 0.2 W 9 13 5 7 1018.8 1019.1 16.0
22/04:00am 8.2 5.6 7.8 97 0.2 WSW 11 17 6 9 1018.7 1019.0 16.0
22/03:30am 8.3 6.6 7.7 96 0.3 WNW 6 11 3 6 1018.4 1018.7 16.0
22/03:00am 8.5 6.6 7.7 95 0.4 SW 7 11 4 6 1018.3 1018.5 16.0
22/02:30am 8.6 6.8 7.8 95 0.4 W 7 11 4 6 1018.2 1018.4 16.0
22/02:00am 8.8 7.0 7.9 94 0.4 W 7 13 4 7 1018.3 1018.5 16.0
22/01:30am 8.9 6.7 7.8 93 0.5 WSW 9 15 5 8 1018.5 1018.8 16.0
22/01:00am 8.9 7.1 7.8 93 0.5 W 7 13 4 7 1018.4 1018.7 16.0
22/12:30am 9.0 7.2 8.1 94 0.4 WSW 7 11 4 6 1018.4 1018.7 16.0
22/12:00am 8.9 7.2 8.3 96 0.3 W 7 11 4 6 1018.4 1018.7 16.0
 
Date/Time
CST
Temp
°C
App
Temp
°C
Dew
Point
°C
Rel
Hum
%
Delta-T
°C
Wind Press
QNH
hPa
Press
MSL
hPa
Rain since
9am
mm
Dir  Spd
km/h
Gust
km/h
Spd
kts
Gust
kts
21/11:30pm 9.1 7.6 8.3 95 0.4 WSW 6 9 3 5 1018.3 1018.5 16.0
21/11:00pm 9.4 6.7 8.8 96 0.3 WSW 13 17 7 9 1018.1 1018.3 16.0
21/10:30pm 9.5 7.6 9.0 97 0.3 WSW 9 11 5 6 1018.0 1018.2 16.0
21/10:00pm 9.5 7.6 9.2 98 0.2 WSW 9 19 5 10 1017.9 1018.1 16.0
21/09:30pm 9.5 7.6 9.2 98 0.2 WSW 9 15 5 8 1017.7 1017.9 16.0
21/09:00pm 9.2 7.8 8.9 98 0.1 WSW 6 9 3 5 1017.3 1017.5 16.0
21/08:30pm 9.0 7.9 8.6 97 0.2 SW 4 7 2 4 1016.9 1017.2 16.0
21/08:00pm 9.3 7.9 8.8 97 0.2 WSW 6 9 3 5 1016.7 1017.0 16.0
21/07:30pm 9.1 7.6 8.6 97 0.2 SSW 6 7 3 4 1016.2 1016.5 16.0
21/07:00pm 9.1 7.5 8.6 97 0.2 SSW 7 9 4 5 1015.5 1015.7 16.0
21/06:30pm 8.9 6.9 8.5 97 0.2 S 9 13 5 7 1015.2 1015.4 16.0
21/06:00pm 8.5 6.7 8.1 97 0.2 S 7 9 4 5 1015.0 1015.2 16.0
21/05:30pm 9.2 7.2 8.6 96 0.3 SSW 9 15 5 8 1014.3 1014.5 16.0
21/05:00pm 9.0 5.4 8.2 95 0.4 S 17 20 9 11 1013.7 1014.0 16.0
21/04:30pm 9.2 5.0 8.1 93 0.5 S 20 26 11 14 1013.2 1013.4 16.0
21/04:00pm 9.5 4.8 7.9 90 0.8 S 22 30 12 16 1012.5 1012.7 16.0
21/03:30pm 10.3 6.2 8.7 90 0.8 S 20 30 11 16 1012.3 1012.5 16.0
21/03:00pm 9.5 4.8 7.8 89 0.8 S 22 35 12 19 1011.8 1012.0 16.0
21/02:30pm 9.2 5.0 8.4 95 0.4 S 20 24 11 13 1011.3 1011.5 16.0
21/02:00pm 9.2 4.6 8.1 93 0.5 S 22 30 12 16 1010.8 1011.0 16.0
21/01:30pm 8.6 4.9 7.8 95 0.4 S 17 24 9 13 1010.5 1010.7 16.0
21/01:00pm 9.2 6.0 8.6 96 0.3 S 15 24 8 13 1010.1 1010.3 16.0
21/12:30pm 8.8 5.2 8.5 98 0.1 S 17 24 9 13 1010.1 1010.3 16.0
21/12:00pm 8.5 7.0 8.4 99 0.0 S 6 9 3 5 1009.8 1010.0 16.0
21/11:30am 7.9 5.7 7.8 99 0.0 SSE 9 11 5 6 1009.7 1009.9 14.4
21/11:00am 8.0 5.0 7.7 98 0.1 SSE 13 19 7 10 1009.4 1009.6 5.8
21/10:30am 8.3 6.7 8.2 99 0.0 N 6 9 3 5 1008.9 1009.1 1.0
21/10:00am 7.7 6.3 7.4 98 0.1 N 4 9 2 5 1008.6 1008.8 0.6
21/09:30am 7.4 6.0 7.3 99 0.0 N 4 9 2 5 1008.2 1008.3 0.2
21/09:00am 7.3 5.9 7.2 99 0.0 N 4 7 2 4 1007.9 1008.1 2.4
21/08:30am 6.7 5.5 6.4 98 0.1 NNW 2 6 1 3 1007.6 1007.8 2.0
21/08:00am 6.3 5.0 6.0 98 0.1 NNW 2 7 1 4 1007.2 1007.4 1.6
21/07:30am 6.0 4.3 5.7 98 0.1 N 4 7 2 4 1006.7 1006.9 1.2
21/07:00am 6.0 3.9 5.6 97 0.2 NNE 6 11 3 6 1006.7 1006.9 0.8
21/06:30am 6.0 4.2 5.6 97 0.2 NNW 4 11 2 6 1006.1 1006.3 0.6
21/06:00am 6.1 4.4 5.7 97 0.2 WNW 4 9 2 5 1005.8 1005.9 0.4
21/05:30am 6.3 4.2 5.7 96 0.3 WNW 6 13 3 7 1005.6 1005.7 0.2
21/05:00am 6.3 4.0 5.6 95 0.3 NW 7 19 4 10 1005.4 1005.5 0.0
21/04:30am 6.4 4.2 5.4 93 0.5 NW 6 15 3 8 1005.7 1005.8 0.0
21/04:00am 6.6 4.2 5.2 91 0.6 WNW 7 13 4 7 1005.8 1005.9 0.0
21/03:30am 6.8 4.3 5.0 88 0.8 NW 7 20 4 11 1006.1 1006.3 0.0
21/03:00am 7.7 5.2 4.5 80 1.4 NW 7 13 4 7 1006.6 1006.8 0.0
21/02:30am 8.2 5.6 4.2 76 1.8 NW 7 24 4 13 1006.9 1007.1 0.0
21/02:00am 7.9 5.3 4.1 77 1.7 NW 7 15 4 8 1007.0 1007.2 0.0
21/01:30am 7.8 5.2 4.2 78 1.6 WNW 7 17 4 9 1007.2 1007.4 0.0
21/01:00am 7.4 4.5 4.5 82 1.3 NW 9 22 5 12 1007.3 1007.5 0.0
21/12:30am 7.2 4.4 5.2 87 0.9 WNW 9 20 5 11 1007.8 1008.0 0.0
21/12:00am 6.9 4.5 5.4 90 0.7 NW 7 20 4 11 1008.4 1008.5 0.0
 
Date/Time
CST
Temp
°C
App
Temp
°C
Dew
Point
°C
Rel
Hum
%
Delta-T
°C
Wind Press
QNH
hPa
Press
MSL
hPa
Rain since
9am
mm
Dir  Spd
km/h
Gust
km/h
Spd
kts
Gust
kts
20/11:30pm 6.6 4.3 5.6 93 0.5 N 7 17 4 9 1008.9 1009.1 0.0
20/11:00pm 6.4 4.3 5.8 96 0.3 W 6 13 3 7 1009.6 1009.8 0.0
20/10:30pm 6.5 4.5 6.1 97 0.2 S 6 11 3 6 1010.2 1010.4 0.0
20/10:00pm 6.5 4.3 6.2 98 0.1 NW 7 20 4 11 1010.6 1010.8 0.0
20/09:30pm 6.3 4.1 6.0 98 0.1 WNW 7 20 4 11 1011.4 1011.6 0.0
20/09:00pm 6.0 3.9 5.6 97 0.2 NNW 6 19 3 10 1012.1 1012.3 0.0
20/08:30pm 6.0 3.9 5.6 97 0.2 NNE 6 17 3 9 1012.1 1012.3 0.0
20/08:00pm 6.0 3.9 5.6 97 0.2 NNE 6 19 3 10 1012.8 1013.0 0.0
20/07:30pm 5.8 1.9 5.4 97 0.2 NE 15 26 8 14 1012.5 1012.7 0.0

Other Formats:

Comma delimited format used in spreadsheet applications
http://www.bom.gov.au/fwo/IDS60801/IDS60801.94811.axf

JavaScript Object Notation format (JSON) in row-major order
http://www.bom.gov.au/fwo/IDS60801/IDS60801.94811.json